< < Back
Terminal Aerodrome Forecast


Current Version              Previous Versions:   1  2  3  4  5  6  7  8  9  

Terminal Aerodrome Forecast

146
FTUS42 KJAX 192300
TAFSSI
TAF
KSSI 192329Z 2000/2024 06006KT P6SM FEW250
     FM200800 04004KT P6SM SCT030 SCT250
     FM201500 07008KT P6SM SCT045=

Latest METAR

455
SAUS70 KWBC 201100 RRF
MTRSSI
METAR KSSI 201053Z AUTO 00000KT 10SM SCT050 13/13 A3007 RMK AO2 SLP183
T01280128


USA.gov is the U.S. government's official web portal to all federal, state and local government web resources and services.